ADDS METAR Data INFO
IDs: Format: Raw Decoded Include TAF

Data at: 0350 UTC 18 Oct 2017

KBYI 180253Z AUTO 20005KT 8SM CLR 09/M03 A3009 RMK AO2 SLP191 T00891033 53007
KBYI 180153Z AUTO 20006KT 10SM CLR 13/M04 A3008 RMK AO2 SLP185 T01281039
KBYI 180053Z AUTO 28005KT 9SM CLR 16/M05 A3007 RMK AO2 SLP175 T01611050
KBYI 180015Z AUTO 27006KT 7SM CLR 19/M06 A3007 RMK AO2 T01891056
KBYI 180007Z AUTO 26006KT 5SM HZ CLR 19/M06 A3007 RMK AO2 T01941056
KBYI 172353Z AUTO 26004KT 9SM CLR 21/M05 A3007 RMK AO2 SLP169 T02061050 10211 20144 58002
KBYI 172253Z AUTO VRB04KT 10SM CLR 21/M07 A3007 RMK AO2 SLP170 T02111072
KBYI 172203Z AUTO 31005KT 8SM CLR 20/M04 A3008 RMK AO2 T02001044
KBYI 172153Z AUTO 33003KT 5SM HZ CLR 21/M04 A3008 RMK AO2 SLP169 T02061039
KBYI 172140Z AUTO 5SM HZ CLR 20/M05 A3008 RMK AO2 T02001050
KBYI 172053Z AUTO 30003KT 10SM CLR 20/M04 A3010 RMK AO2 SLP179 T02001044 58026
KBYI 171953Z AUTO 00000KT 10SM CLR 19/M03 A3013 RMK AO2 SLP189 T01941033
KBYI 171853Z AUTO 00000KT 10SM CLR 17/M03 A3016 RMK AO2 SLP203 T01671033
KBYI 171753Z AUTO 05005KT 10SM CLR 14/M02 A3019 RMK AO2 SLP214 T01391022 10139 21022 58009
KBYI 171653Z AUTO 03005KT 10SM CLR 09/M02 A3021 RMK AO2 SLP224 T00941022
KBYI 171553Z AUTO 05005KT 10SM CLR 05/M02 A3022 RMK AO2 SLP234 T00501017
KBYI 171453Z AUTO 36003KT 10SM CLR 01/M03 A3022 RMK AO2 SLP239 T00061028 56009
KBYI 171353Z AUTO 00000KT 10SM CLR M02/M04 A3022 RMK AO2 SLP240 T10171044
KBYI 171253Z AUTO 01003KT 10SM CLR M01/M04 A3024 RMK AO2 SLP239 T10111044
KBYI 171153Z AUTO 01004KT 8SM CLR M01/M03 A3025 RMK AO2 SLP235 T10111033 10022 21017 56009
KBYI 171053Z AUTO 05003KT 10SM CLR M01/M03 A3025 RMK AO2 SLP236 T10111033
KBYI 170953Z AUTO 00000KT 10SM CLR 00/M04 A3027 RMK AO2 SLP241 T00001039
KBYI 170853Z AUTO 00000KT 10SM CLR 00/M03 A3028 RMK AO2 SLP245 T00001028 53001
KBYI 170753Z AUTO 00000KT 10SM CLR 00/M03 A3028 RMK AO2 SLP247 T00001028
KBYI 170653Z AUTO 18003KT 10SM CLR 02/M02 A3027 RMK AO2 SLP245 T00171017 401891044
KBYI 170553Z AUTO 00000KT 10SM CLR 02/M02 A3028 RMK AO2 SLP251 T00221022 10172 20022 51003
KBYI 170453Z AUTO 00000KT 10SM CLR 04/M03 A3028 RMK AO2 SLP253 T00441033
KBYI 170353Z AUTO 00000KT 9SM CLR 04/M02 A3027 RMK AO2 SLP258 T00441022
KBYI 170253Z AUTO 00000KT 10SM CLR 06/M03 A3027 RMK AO2 SLP259 T00611033 57003
KBYI 170153Z AUTO 00000KT 10SM CLR 08/M02 A3027 RMK AO2 SLP263 T00781017
KBYI 170053Z AUTO 00000KT 9SM CLR 13/M05 A3027 RMK AO2 SLP255 T01281050
KBYI 162353Z AUTO 00000KT 10SM CLR 18/M08 A3028 RMK AO2 SLP248 T01781078 10189 20106 58009
KBYI 162253Z AUTO 00000KT 10SM CLR 19/M07 A3029 RMK AO2 SLP253 T01891072
KBYI 162153Z AUTO 30003KT 10SM CLR 18/M07 A3030 RMK AO2 SLP255 T01781067
KBYI 162053Z AUTO 00000KT 10SM CLR 17/M07 A3031 RMK AO2 SLP257 T01721072 58020
KBYI 161953Z AUTO 09003KT 10SM CLR 16/M07 A3034 RMK AO2 SLP269 T01561067
KBYI 161853Z AUTO VRB03KT 10SM CLR 13/M06 A3037 RMK AO2 SLP283 T01331056
KBYI 161753Z AUTO 00000KT 10SM CLR 11/M06 A3038 RMK AO2 SLP287 T01061056 10106 21044 58000
KBYI 161653Z AUTO 00000KT 10SM CLR 08/M06 A3039 RMK AO2 SLP294 T00781056
KBYI 161553Z AUTO 02004KT 10SM CLR 03/M04 A3039 RMK AO2 SLP298 T00331039